Time;durP1;ratioP1;P1;durP2;ratioP2;P2;SDS_P1;SDS_P2;PMS_P1;PMS_P2;Temp;Humidity;BMP_temperature;BMP_pressure;BME280_temperature;BME280_humidity;BME280_pressure;Samples;Min_cycle;Max_cycle;Signal;HPM_P1;HPM_P2
2021/09/08 00:01:00;;;;;;;20.92;15.10;;;14.90;99.90;;;;;;5060152;28;20219;-53
2021/09/08 00:03:27;;;;;;;17.33;14.57;;;14.80;99.90;;;;;;5055355;28;20214;-52
2021/09/08 00:05:55;;;;;;;19.20;14.07;;;14.80;99.90;;;;;;5061398;28;20561;-52
2021/09/08 00:08:22;;;;;;;22.23;14.90;;;14.80;99.90;;;;;;5061800;28;20199;-54
2021/09/08 00:10:49;;;;;;;25.58;18.35;;;14.80;99.90;;;;;;5061147;28;20227;-53
2021/09/08 00:13:16;;;;;;;24.23;17.92;;;14.80;99.90;;;;;;5060821;28;20259;-50
2021/09/08 00:15:43;;;;;;;25.38;16.40;;;14.80;99.90;;;;;;5060897;28;20204;-52
2021/09/08 00:18:11;;;;;;;18.20;14.38;;;14.70;99.90;;;;;;5061626;28;20549;-53
2021/09/08 00:20:38;;;;;;;22.40;17.30;;;14.60;99.90;;;;;;5061251;28;20255;-54
2021/09/08 00:23:05;;;;;;;21.30;15.10;;;14.60;99.90;;;;;;5061619;28;20238;-50
2021/09/08 00:25:32;;;;;;;23.38;16.33;;;14.70;99.90;;;;;;5060956;28;20217;-54
2021/09/08 00:28:00;;;;;;;23.95;15.70;;;14.70;99.90;;;;;;5061778;28;20289;-51
2021/09/08 00:30:27;;;;;;;23.30;16.77;;;14.60;99.90;;;;;;5061033;28;20465;-53
2021/09/08 00:32:54;;;;;;;23.25;16.92;;;14.60;99.90;;;;;;5061484;28;20192;-52
2021/09/08 00:35:22;;;;;;;19.23;15.48;;;14.60;99.90;;;;;;5061633;28;20195;-50
2021/09/08 00:37:49;;;;;;;22.70;15.77;;;14.50;99.90;;;;;;5060573;28;20199;-52
2021/09/08 00:40:16;;;;;;;20.67;15.52;;;14.50;99.90;;;;;;5060421;28;20219;-53
2021/09/08 00:42:44;;;;;;;24.70;17.67;;;14.40;99.90;;;;;;5060477;28;20203;-54
2021/09/08 00:45:13;;;;;;;26.10;17.52;;;14.40;99.90;;;;;;5061262;28;20222;-50
2021/09/08 00:47:40;;;;;;;22.42;15.98;;;14.40;99.90;;;;;;5060978;28;20290;-51
2021/09/08 00:50:09;;;;;;;22.00;15.68;;;14.40;99.90;;;;;;5060972;28;20562;-50
2021/09/08 00:52:38;;;;;;;20.45;15.68;;;14.40;99.90;;;;;;5060315;28;20208;-52
2021/09/08 00:55:07;;;;;;;22.90;17.73;;;14.40;99.90;;;;;;5061347;28;20271;-53
2021/09/08 00:57:35;;;;;;;20.15;15.90;;;14.40;99.90;;;;;;5060652;28;20218;-53
2021/09/08 01:00:04;;;;;;;21.42;16.55;;;14.40;99.90;;;;;;5058563;28;20199;-50
2021/09/08 01:02:31;;;;;;;24.58;17.33;;;14.40;99.90;;;;;;5060720;28;20242;-51
2021/09/08 01:04:59;;;;;;;21.38;17.05;;;14.30;99.90;;;;;;5060390;28;20200;-51
2021/09/08 01:07:26;;;;;;;21.27;16.85;;;14.40;99.90;;;;;;5060583;28;20220;-50
2021/09/08 01:09:53;;;;;;;19.77;15.32;;;14.40;99.90;;;;;;5060318;28;20260;-51
2021/09/08 01:12:21;;;;;;;24.35;16.45;;;14.50;99.90;;;;;;5060024;28;20250;-50
2021/09/08 01:14:48;;;;;;;22.15;17.20;;;14.40;99.90;;;;;;5059789;28;20402;-51
2021/09/08 01:17:18;;;;;;;18.80;14.77;;;14.40;99.90;;;;;;5061052;28;20486;-50
2021/09/08 01:19:45;;;;;;;23.05;15.57;;;14.40;99.90;;;;;;5060320;28;20257;-52
2021/09/08 01:22:13;;;;;;;24.10;17.77;;;14.40;99.90;;;;;;5042539;28;20249;-54
2021/09/08 01:24:42;;;;;;;20.33;16.00;;;14.30;99.90;;;;;;5060667;28;20250;-51
2021/09/08 01:27:09;;;;;;;22.73;17.27;;;14.30;99.90;;;;;;5059796;28;20238;-53
2021/09/08 01:29:36;;;;;;;22.27;16.33;;;14.30;99.90;;;;;;5059865;28;20226;-51
2021/09/08 01:32:04;;;;;;;22.25;18.10;;;14.30;99.90;;;;;;5059488;28;20246;-49
2021/09/08 01:34:32;;;;;;;22.27;19.60;;;14.30;99.90;;;;;;5060823;28;20257;-54
2021/09/08 01:36:59;;;;;;;23.95;16.63;;;14.30;99.90;;;;;;5060130;28;20203;-55
2021/09/08 01:39:26;;;;;;;24.75;16.50;;;14.30;99.90;;;;;;5060437;28;20207;-55
2021/09/08 01:41:53;;;;;;;25.10;20.48;;;14.30;99.90;;;;;;5059783;28;20226;-55
2021/09/08 01:44:22;;;;;;;27.70;22.17;;;14.20;99.90;;;;;;5052215;28;20195;-56
2021/09/08 01:46:51;;;;;;;32.58;21.88;;;14.20;99.90;;;;;;5055746;28;20215;-54
2021/09/08 01:49:19;;;;;;;36.00;24.50;;;14.20;99.90;;;;;;5057636;28;20203;-56
2021/09/08 01:51:46;;;;;;;31.25;23.65;;;14.20;99.90;;;;;;5059438;28;20250;-51
2021/09/08 01:54:14;;;;;;;34.08;23.80;;;14.20;99.90;;;;;;5059999;28;20203;-50
2021/09/08 01:56:41;;;;;;;30.17;22.40;;;14.20;99.90;;;;;;5059634;28;20203;-55
2021/09/08 01:59:09;;;;;;;33.78;22.75;;;14.20;99.90;;;;;;5059254;28;20203;-52
2021/09/08 02:01:36;;;;;;;35.97;24.88;;;14.20;99.90;;;;;;5059255;28;20230;-54
2021/09/08 02:04:04;;;;;;;31.42;22.05;;;14.20;99.90;;;;;;5059322;28;20242;-53
2021/09/08 02:06:31;;;;;;;29.17;18.98;;;14.20;99.90;;;;;;5059705;28;20288;-51
2021/09/08 02:09:00;;;;;;;27.48;17.50;;;14.10;99.90;;;;;;5059702;28;20437;-57
2021/09/08 02:11:28;;;;;;;25.40;18.60;;;14.10;99.90;;;;;;5059215;28;20269;-51
2021/09/08 02:13:56;;;;;;;32.58;23.75;;;14.10;99.90;;;;;;5059066;28;20196;-53
2021/09/08 02:16:23;;;;;;;31.05;22.00;;;14.00;99.90;;;;;;5059174;28;20204;-55
2021/09/08 02:18:51;;;;;;;38.90;25.25;;;13.80;99.90;;;;;;5059777;28;20199;-50
2021/09/08 02:21:18;;;;;;;31.85;24.45;;;13.80;99.90;;;;;;5059384;28;20273;-52
2021/09/08 02:23:47;;;;;;;30.83;23.73;;;13.90;99.90;;;;;;5059292;28;20502;-56
2021/09/08 02:26:14;;;;;;;35.80;24.52;;;14.00;99.90;;;;;;5059708;28;20207;-52
2021/09/08 02:28:42;;;;;;;35.03;23.70;;;14.00;99.90;;;;;;5056194;28;20439;-49
2021/09/08 02:31:09;;;;;;;32.00;20.98;;;14.00;99.90;;;;;;5057962;28;20457;-49
2021/09/08 02:33:37;;;;;;;28.67;22.27;;;14.00;99.90;;;;;;5059148;28;20207;-54
2021/09/08 02:36:05;;;;;;;32.67;20.65;;;14.00;99.90;;;;;;5059278;28;20203;-53
2021/09/08 02:38:33;;;;;;;34.42;22.77;;;14.00;99.90;;;;;;5058876;28;20242;-51
2021/09/08 02:41:09;;;;;;;33.42;22.45;;;14.00;99.90;;;;;;5059377;28;20219;-51
2021/09/08 02:43:36;;;;;;;28.48;19.75;;;13.90;99.90;;;;;;5051593;28;20575;-52
2021/09/08 02:46:04;;;;;;;27.80;20.65;;;13.90;99.90;;;;;;5056190;28;20212;-51
2021/09/08 02:48:32;;;;;;;23.88;17.95;;;13.90;99.90;;;;;;5056406;28;20234;-54
2021/09/08 02:51:00;;;;;;;28.42;20.55;;;13.80;99.90;;;;;;5062945;28;20421;-51
2021/09/08 02:53:28;;;;;;;30.33;21.75;;;13.70;99.90;;;;;;5064255;28;20207;-50
2021/09/08 02:55:56;;;;;;;28.77;23.98;;;13.60;99.90;;;;;;5062664;28;20203;-53
2021/09/08 02:58:23;;;;;;;29.08;19.83;;;13.60;99.90;;;;;;5063301;28;20246;-50
2021/09/08 03:00:50;;;;;;;34.80;21.92;;;13.60;99.90;;;;;;5057664;28;20286;-54
2021/09/08 03:03:18;;;;;;;32.80;21.85;;;13.80;99.90;;;;;;5062939;28;20506;-55
2021/09/08 03:05:47;;;;;;;38.28;23.38;;;13.90;99.90;;;;;;5062410;28;20502;-52
2021/09/08 03:08:15;;;;;;;28.42;22.52;;;13.80;99.90;;;;;;5062729;28;20227;-51
2021/09/08 03:10:43;;;;;;;33.58;21.80;;;13.70;99.90;;;;;;5061902;28;20239;-52
2021/09/08 03:13:15;;;;;;;28.75;20.48;;;13.50;99.90;;;;;;5062734;28;20215;-52
2021/09/08 03:15:43;;;;;;;37.70;22.20;;;13.60;99.90;;;;;;5061979;28;20200;-48
2021/09/08 03:18:10;;;;;;;30.55;21.10;;;13.70;99.90;;;;;;5063033;28;20456;-51
2021/09/08 03:20:38;;;;;;;29.45;21.27;;;13.70;99.90;;;;;;5062370;28;20224;-55
2021/09/08 03:23:05;;;;;;;37.72;22.33;;;13.70;99.90;;;;;;5062266;28;20257;-55
2021/09/08 03:25:33;;;;;;;33.15;23.00;;;13.70;99.90;;;;;;5062340;28;20204;-51
2021/09/08 03:28:00;;;;;;;33.28;23.60;;;13.70;99.90;;;;;;5062599;28;20297;-53
2021/09/08 03:30:28;;;;;;;31.33;21.95;;;13.60;99.90;;;;;;5057798;28;20242;-52
2021/09/08 03:32:55;;;;;;;34.33;22.58;;;13.60;99.90;;;;;;5062433;28;20207;-54
2021/09/08 03:35:22;;;;;;;31.10;20.98;;;13.50;99.90;;;;;;5061888;28;20210;-51
2021/09/08 03:37:49;;;;;;;31.92;22.95;;;13.30;99.90;;;;;;5062666;28;20351;-53
2021/09/08 03:40:17;;;;;;;32.50;22.08;;;13.20;99.90;;;;;;5062088;28;20222;-52
2021/09/08 03:42:44;;;;;;;28.17;21.60;;;13.30;99.90;;;;;;5055877;28;20257;-54
2021/09/08 03:45:12;;;;;;;32.90;22.55;;;13.40;99.90;;;;;;5061111;28;20246;-51
2021/09/08 03:47:41;;;;;;;32.88;22.63;;;13.50;99.90;;;;;;5061923;28;20223;-54
2021/09/08 03:50:09;;;;;;;29.58;20.60;;;13.50;99.90;;;;;;5061998;28;20215;-54
2021/09/08 03:52:36;;;;;;;27.00;18.98;;;13.50;99.90;;;;;;5061823;28;20266;-53
2021/09/08 03:55:05;;;;;;;28.23;19.98;;;13.50;99.90;;;;;;5061076;28;20215;-50
2021/09/08 03:57:32;;;;;;;30.02;21.73;;;13.30;99.90;;;;;;5061963;28;20219;-53
2021/09/08 04:00:00;;;;;;;33.35;20.20;;;13.20;99.90;;;;;;5061630;28;20199;-55
2021/09/08 04:02:26;;;;;;;28.73;20.77;;;13.10;99.90;;;;;;5054101;28;20211;-54
2021/09/08 04:04:54;;;;;;;34.03;23.52;;;13.00;99.90;;;;;;5047863;28;20214;-52
2021/09/08 04:07:21;;;;;;;34.67;21.58;;;13.00;99.90;;;;;;5057411;28;20216;-52
2021/09/08 04:09:48;;;;;;;32.88;21.73;;;12.90;99.90;;;;;;5062324;28;20436;-49
2021/09/08 04:12:16;;;;;;;31.60;20.02;;;13.10;99.90;;;;;;5059266;28;20199;-54
2021/09/08 04:14:43;;;;;;;28.58;21.00;;;13.00;99.90;;;;;;5061643;28;20207;-51
2021/09/08 04:17:10;;;;;;;33.05;23.25;;;13.20;99.90;;;;;;5058089;28;20203;-53
2021/09/08 04:19:38;;;;;;;37.60;21.42;;;13.00;99.90;;;;;;5046630;28;20208;-55
2021/09/08 04:22:05;;;;;;;34.38;23.58;;;13.20;99.90;;;;;;5059457;28;20349;-53
2021/09/08 04:24:32;;;;;;;32.35;23.00;;;13.20;99.90;;;;;;5056268;28;20203;-51
2021/09/08 04:27:00;;;;;;;33.63;22.25;;;13.30;99.90;;;;;;5061336;28;20245;-51
2021/09/08 04:29:27;;;;;;;39.13;25.85;;;13.30;99.90;;;;;;5061258;28;20199;-52
2021/09/08 04:31:54;;;;;;;33.47;23.70;;;13.20;99.90;;;;;;5060887;28;20235;-51
2021/09/08 04:34:21;;;;;;;27.77;22.35;;;13.20;99.90;;;;;;5061414;28;20394;-50
2021/09/08 04:36:48;;;;;;;35.47;24.92;;;13.20;99.90;;;;;;5061340;28;20502;-55
2021/09/08 04:39:15;;;;;;;31.48;22.48;;;13.10;99.90;;;;;;5061033;28;20195;-53
2021/09/08 04:41:43;;;;;;;38.00;25.20;;;13.20;99.90;;;;;;5060849;28;20287;-56
2021/09/08 04:44:10;;;;;;;33.75;23.83;;;13.30;99.90;;;;;;5054467;28;20195;-51
2021/09/08 04:46:37;;;;;;;40.63;25.75;;;13.40;99.90;;;;;;5061156;28;20234;-54
2021/09/08 04:49:04;;;;;;;36.20;23.90;;;13.20;99.90;;;;;;5061089;28;20266;-51
2021/09/08 04:51:32;;;;;;;37.85;25.00;;;13.20;99.90;;;;;;5060890;28;20226;-54
2021/09/08 04:53:59;;;;;;;38.72;24.90;;;13.40;99.90;;;;;;5056596;28;20264;-54
2021/09/08 04:56:27;;;;;;;34.75;23.70;;;13.50;99.90;;;;;;5060532;28;20237;-54
2021/09/08 04:58:55;;;;;;;35.10;24.20;;;13.60;99.90;;;;;;5057825;28;21434;-52
2021/09/08 05:01:22;;;;;;;36.58;25.10;;;13.60;99.90;;;;;;5055481;28;20265;-50
2021/09/08 05:03:50;;;;;;;39.10;27.05;;;13.80;99.90;;;;;;5060185;28;20808;-52
2021/09/08 05:06:17;;;;;;;37.00;26.52;;;13.80;99.90;;;;;;5058965;28;20199;-52
2021/09/08 05:08:45;;;;;;;38.50;25.60;;;14.00;99.90;;;;;;5060397;28;20529;-54
2021/09/08 05:11:13;;;;;;;39.15;25.25;;;13.90;99.90;;;;;;5056040;28;20602;-53
2021/09/08 05:13:40;;;;;;;32.00;26.40;;;14.10;99.90;;;;;;5060299;28;20249;-50
2021/09/08 05:16:08;;;;;;;35.83;23.38;;;14.20;99.90;;;;;;5060451;28;20196;-49
2021/09/08 05:18:36;;;;;;;34.42;25.05;;;14.30;99.90;;;;;;5047368;28;20210;-53
2021/09/08 05:21:03;;;;;;;41.33;24.83;;;14.20;99.90;;;;;;5048285;28;20285;-51
2021/09/08 05:23:30;;;;;;;36.35;25.70;;;14.30;99.90;;;;;;5047451;28;20278;-50
2021/09/08 05:25:57;;;;;;;41.30;21.70;;;14.40;99.90;;;;;;5047085;28;20514;-53
2021/09/08 05:28:25;;;;;;;29.08;19.92;;;14.40;99.90;;;;;;5060129;28;20265;-52
2021/09/08 05:30:52;;;;;;;31.13;20.95;;;14.40;99.90;;;;;;5059433;28;20211;-54
2021/09/08 05:33:19;;;;;;;27.90;20.30;;;14.30;99.90;;;;;;5053005;28;20196;-51
2021/09/08 05:35:46;;;;;;;28.05;21.50;;;14.50;99.90;;;;;;5058288;28;20196;-54
2021/09/08 05:38:14;;;;;;;24.05;19.70;;;14.60;99.90;;;;;;5060158;28;20237;-51
2021/09/08 05:40:41;;;;;;;32.80;19.23;;;14.80;99.90;;;;;;5055384;28;20231;-55
2021/09/08 05:43:08;;;;;;;29.85;19.83;;;15.00;99.90;;;;;;5036141;28;20207;-48
2021/09/08 05:45:35;;;;;;;26.27;18.70;;;15.20;99.90;;;;;;5049716;28;20218;-53
2021/09/08 05:48:03;;;;;;;30.48;19.55;;;15.10;99.90;;;;;;5051265;28;20221;-50
2021/09/08 05:50:30;;;;;;;19.48;16.30;;;15.20;99.90;;;;;;5057566;28;20255;-51
2021/09/08 05:53:01;;;;;;;20.27;17.67;;;15.30;99.90;;;;;;5058738;28;20211;-56
2021/09/08 05:55:28;;;;;;;24.00;17.50;;;15.50;99.90;;;;;;5053116;28;20224;-50
2021/09/08 05:57:55;;;;;;;26.10;17.70;;;15.70;99.90;;;;;;5060077;28;20438;-51
2021/09/08 06:00:22;;;;;;;23.20;18.20;;;16.00;99.90;;;;;;5059344;28;20494;-53
2021/09/08 06:02:50;;;;;;;20.20;15.30;;;16.50;99.90;;;;;;5058860;28;20654;-55
2021/09/08 06:05:18;;;;;;;18.17;14.83;;;17.00;99.90;;;;;;5052840;28;20448;-50
2021/09/08 06:07:45;;;;;;;18.80;15.03;;;17.50;99.90;;;;;;5059143;28;20474;-55
2021/09/08 06:10:17;;;;;;;18.80;15.27;;;17.90;99.90;;;;;;5054286;28;20463;-55
2021/09/08 06:12:45;;;;;;;18.10;13.40;;;18.30;99.90;;;;;;5057848;28;20458;-51
2021/09/08 06:15:13;;;;;;;28.10;15.10;;;18.90;99.90;;;;;;5059558;28;20419;-57
2021/09/08 06:17:41;;;;;;;19.47;15.93;;;19.60;99.90;;;;;;5056845;28;20506;-50
2021/09/08 06:20:09;;;;;;;16.27;14.57;;;19.90;99.90;;;;;;5057099;28;20487;-53
2021/09/08 06:22:37;;;;;;;20.33;14.03;;;20.60;99.90;;;;;;5059645;28;20480;-54
2021/09/08 06:25:05;;;;;;;15.87;14.13;;;21.50;99.90;;;;;;5050684;28;20491;-54
2021/09/08 06:27:33;;;;;;;15.90;14.20;;;22.60;99.90;;;;;;5050075;28;20529;-55
2021/09/08 06:30:01;;;;;;;20.63;16.30;;;23.20;99.90;;;;;;5043374;28;20479;-56
2021/09/08 06:32:28;;;;;;;15.23;13.63;;;24.00;99.90;;;;;;5047252;28;20411;-51
2021/09/08 06:34:56;;;;;;;17.70;15.70;;;24.20;99.90;;;;;;5060345;28;20437;-51
2021/09/08 06:37:23;;;;;;;21.03;14.90;;;24.40;99.90;;;;;;5060199;28;20459;-54
2021/09/08 06:39:50;;;;;;;16.37;14.67;;;25.00;99.90;;;;;;5060255;28;20425;-50
2021/09/08 06:42:17;;;;;;;17.30;15.10;;;25.60;99.90;;;;;;5057546;28;20449;-52
2021/09/08 06:44:46;;;;;;;17.20;15.57;;;26.00;99.90;;;;;;5055630;28;20498;-50
2021/09/08 06:47:13;;;;;;;24.83;16.40;;;27.30;99.90;;;;;;5059879;28;20632;-51
2021/09/08 06:49:41;;;;;;;16.90;15.40;;;27.50;99.90;;;;;;5054097;28;20505;-54
2021/09/08 06:52:08;;;;;;;18.33;15.93;;;27.40;99.50;;;;;;5059143;28;20501;-48
2021/09/08 06:54:35;;;;;;;17.07;15.53;;;26.90;99.80;;;;;;5056603;28;20482;-54
2021/09/08 06:57:03;;;;;;;15.60;14.10;;;26.80;99.70;;;;;;5058465;28;20488;-50
2021/09/08 06:59:30;;;;;;;17.50;16.00;;;26.80;99.70;;;;;;5059112;28;20511;-53
2021/09/08 07:01:59;;;;;;;16.93;15.33;;;26.90;99.80;;;;;;5058639;28;20510;-54
2021/09/08 07:04:27;;;;;;;16.70;15.10;;;27.40;98.90;;;;;;5041698;28;20449;-51
2021/09/08 07:06:54;;;;;;;17.70;16.10;;;28.20;97.40;;;;;;5048010;28;20434;-52
2021/09/08 07:12:45;;;;;;;16.83;15.53;;;29.90;94.20;;;;;;5046586;28;20457;-50
2021/09/08 07:15:13;;;;;;;18.40;16.77;;;30.50;92.90;;;;;;5056505;28;20437;-49
2021/09/08 07:17:40;;;;;;;16.13;14.63;;;30.60;92.10;;;;;;5058888;28;20440;-53
2021/09/08 07:20:08;;;;;;;18.33;16.80;;;30.00;92.60;;;;;;5059248;28;20483;-57
2021/09/08 07:22:35;;;;;;;18.97;17.17;;;30.60;91.60;;;;;;5059168;28;20446;-53
2021/09/08 07:25:03;;;;;;;17.20;15.80;;;30.90;91.40;;;;;;5058751;28;20739;-52
2021/09/08 07:27:30;;;;;;;15.43;13.90;;;31.20;90.00;;;;;;5058928;28;20500;-56
2021/09/08 07:29:58;;;;;;;17.13;15.93;;;31.70;89.70;;;;;;5058600;28;20442;-54
2021/09/08 07:32:25;;;;;;;19.00;17.40;;;32.60;85.80;;;;;;5060491;28;20441;-54
2021/09/08 07:34:57;;;;;;;18.33;16.93;;;31.90;87.00;;;;;;5062171;28;20431;-51
2021/09/08 07:37:25;;;;;;;17.37;15.90;;;31.20;88.00;;;;;;5062095;28;20831;-52
2021/09/08 07:39:53;;;;;;;15.37;14.07;;;30.90;89.70;;;;;;5062330;28;20468;-52
2021/09/08 07:42:20;;;;;;;17.00;15.60;;;31.30;87.20;;;;;;5062186;28;20465;-56
2021/09/08 07:44:48;;;;;;;16.27;15.07;;;32.20;85.00;;;;;;5062189;28;20490;-51
2021/09/08 07:47:15;;;;;;;15.60;14.03;;;32.10;85.00;;;;;;5061788;28;20512;-51
2021/09/08 07:49:42;;;;;;;19.23;16.60;;;32.30;83.80;;;;;;5062335;28;20497;-51
2021/09/08 07:52:09;;;;;;;18.00;16.50;;;32.60;81.50;;;;;;5061488;28;20546;-52
2021/09/08 07:54:37;;;;;;;17.63;16.13;;;32.40;82.80;;;;;;5062181;28;20751;-52
2021/09/08 07:57:04;;;;;;;17.63;16.20;;;32.70;81.50;;;;;;5056534;28;20433;-58
2021/09/08 07:59:36;;;;;;;17.73;16.17;;;32.50;82.20;;;;;;5062027;28;20773;-57
2021/09/08 08:02:03;;;;;;;15.97;14.60;;;33.10;80.60;;;;;;5061030;28;20475;-56
2021/09/08 08:04:31;;;;;;;15.90;14.67;;;33.10;80.50;;;;;;5062217;28;20451;-56
2021/09/08 08:06:58;;;;;;;15.70;14.50;;;32.90;80.90;;;;;;5060790;28;20459;-54
2021/09/08 08:09:25;;;;;;;18.07;16.47;;;32.80;79.90;;;;;;5049968;28;20521;-55
2021/09/08 08:11:52;;;;;;;16.83;15.50;;;33.10;79.10;;;;;;5043859;28;20480;-52
2021/09/08 08:14:20;;;;;;;15.60;14.40;;;32.60;81.30;;;;;;5047037;28;20695;-53
2021/09/08 08:16:47;;;;;;;16.53;15.23;;;33.50;78.70;;;;;;5044613;28;20756;-54
2021/09/08 08:19:14;;;;;;;16.40;15.00;;;33.70;75.90;;;;;;5046155;28;20468;-54
2021/09/08 08:21:41;;;;;;;15.47;14.33;;;33.80;77.10;;;;;;5043574;28;20457;-56
2021/09/08 08:24:11;;;;;;;17.53;15.63;;;33.70;76.30;;;;;;5053350;28;20631;-50
2021/09/08 08:26:39;;;;;;;18.27;16.67;;;32.40;78.60;;;;;;5055824;28;20447;-52
2021/09/08 08:29:06;;;;;;;16.67;15.23;;;32.10;80.20;;;;;;5061273;28;20487;-53
2021/09/08 08:31:33;;;;;;;15.47;14.27;;;32.30;80.50;;;;;;5060794;28;20501;-55
2021/09/08 08:34:01;;;;;;;14.17;13.00;;;32.40;78.30;;;;;;5060980;28;20776;-54
2021/09/08 08:36:28;;;;;;;15.93;14.73;;;32.70;78.20;;;;;;5060762;28;20431;-55
2021/09/08 08:38:56;;;;;;;16.53;15.20;;;31.70;79.10;;;;;;5060934;28;20779;-53
2021/09/08 08:41:23;;;;;;;16.10;15.00;;;32.20;78.30;;;;;;5054593;28;20483;-51
2021/09/08 08:43:51;;;;;;;15.13;13.93;;;32.00;77.70;;;;;;5060790;28;20435;-49
2021/09/08 08:46:18;;;;;;;13.77;12.77;;;32.40;75.50;;;;;;5057005;28;20435;-54
2021/09/08 08:48:45;;;;;;;15.30;14.10;;;33.50;73.70;;;;;;5056161;28;20506;-55
2021/09/08 08:51:13;;;;;;;14.33;13.30;;;33.60;71.90;;;;;;5060296;28;20458;-54
2021/09/08 08:53:41;;;;;;;14.80;13.73;;;33.50;74.30;;;;;;5060549;28;20445;-56
2021/09/08 08:56:08;;;;;;;15.70;14.47;;;32.70;74.30;;;;;;5060698;28;20434;-52
2021/09/08 08:58:35;;;;;;;14.40;13.20;;;32.30;75.20;;;;;;5060639;28;20447;-50
2021/09/08 09:01:25;;;;;;;14.13;12.83;;;31.80;76.20;;;;;;5057333;28;20627;-52
2021/09/08 09:04:02;;;;;;;13.50;12.50;;;32.00;74.30;;;;;;5060141;28;20745;-54
2021/09/08 09:06:31;;;;;;;12.93;11.67;;;32.00;75.30;;;;;;5060537;28;20838;-54
2021/09/08 09:09:07;;;;;;;14.07;12.93;;;32.30;75.70;;;;;;5060073;28;20832;-56
2021/09/08 09:11:35;;;;;;;13.70;12.70;;;33.40;73.60;;;;;;5054488;28;20479;-56
2021/09/08 09:14:05;;;;;;;13.23;12.33;;;32.90;73.50;;;;;;5060319;28;20836;-56
2021/09/08 09:16:35;;;;;;;14.03;12.90;;;32.40;74.30;;;;;;5060658;28;20549;-54
2021/09/08 09:19:03;;;;;;;12.20;11.20;;;31.30;75.70;;;;;;5060243;28;20441;-54
2021/09/08 09:21:30;;;;;;;13.90;12.70;;;30.00;79.80;;;;;;5059773;28;20465;-52
2021/09/08 09:24:00;;;;;;;12.70;11.50;;;28.90;83.30;;;;;;5057673;28;20436;-50
2021/09/08 09:26:36;;;;;;;14.17;12.97;;;28.00;86.80;;;;;;5060997;28;20452;-52
2021/09/08 09:29:11;;;;;;;12.13;11.23;;;27.30;89.60;;;;;;5053221;28;20706;-54
2021/09/08 09:32:11;;;;;;;11.03;10.13;;;27.10;89.60;;;;;;5054940;28;20456;-52
2021/09/08 09:34:40;;;;;;;13.70;12.57;;;27.40;88.10;;;;;;5040159;28;20441;-53
2021/09/08 09:37:09;;;;;;;12.27;11.23;;;26.80;90.30;;;;;;5052864;28;21126;-51
2021/09/08 09:39:39;;;;;;;12.07;11.10;;;26.30;90.30;;;;;;5059609;28;20439;-52
2021/09/08 09:42:10;;;;;;;12.40;11.43;;;26.00;91.00;;;;;;5050410;28;20867;-52
2021/09/08 09:44:41;;;;;;;11.47;10.60;;;26.00;91.00;;;;;;5050994;28;20453;-55
2021/09/08 09:47:08;;;;;;;11.20;10.20;;;25.90;91.60;;;;;;5051556;28;20701;-54
2021/09/08 09:49:35;;;;;;;12.73;11.63;;;25.80;91.00;;;;;;5051784;28;20482;-51
2021/09/08 09:52:07;;;;;;;12.40;11.50;;;25.90;91.50;;;;;;5058954;28;20626;-52
2021/09/08 09:54:36;;;;;;;12.20;11.20;;;25.90;91.70;;;;;;5053222;28;20438;-52
2021/09/08 09:57:04;;;;;;;11.00;9.90;;;25.90;91.60;;;;;;5053774;28;20587;-54
2021/09/08 09:59:32;;;;;;;9.10;8.50;;;25.70;91.00;;;;;;5059661;28;20445;-57
2021/09/08 10:01:59;;;;;;;12.23;11.23;;;25.70;92.50;;;;;;5058982;28;20518;-54
2021/09/08 10:04:27;;;;;;;11.53;10.50;;;25.70;91.50;;;;;;5059263;28;20457;-53
2021/09/08 10:06:56;;;;;;;11.40;10.57;;;25.60;91.20;;;;;;5055731;28;20833;-50
2021/09/08 10:09:26;;;;;;;12.07;11.00;;;25.50;92.20;;;;;;5059270;28;20503;-49
2021/09/08 10:11:55;;;;;;;10.70;9.90;;;25.40;92.20;;;;;;5060021;28;20460;-55
2021/09/08 10:14:25;;;;;;;11.70;10.67;;;25.40;91.80;;;;;;5060086;28;20474;-52
2021/09/08 10:16:53;;;;;;;9.50;8.80;;;25.20;91.30;;;;;;5059431;28;20526;-53
2021/09/08 10:19:27;;;;;;;9.73;8.97;;;24.90;92.20;;;;;;5056987;28;20480;-51
2021/09/08 10:22:05;;;;;;;10.57;9.70;;;25.00;92.60;;;;;;5054581;28;20652;-55
2021/09/08 10:24:32;;;;;;;9.57;8.87;;;24.90;92.30;;;;;;5059371;28;20436;-54
2021/09/08 10:27:00;;;;;;;9.70;9.00;;;24.80;92.60;;;;;;5058920;28;20763;-51
2021/09/08 10:29:29;;;;;;;9.73;8.73;;;25.00;91.80;;;;;;5059431;28;20804;-52
2021/09/08 10:31:58;;;;;;;8.57;7.97;;;25.10;92.40;;;;;;5058573;28;20464;-53
2021/09/08 10:34:26;;;;;;;9.80;8.97;;;25.20;92.40;;;;;;5058588;28;20536;-52
2021/09/08 10:36:54;;;;;;;9.93;9.13;;;25.30;91.50;;;;;;5058987;28;20443;-49
2021/09/08 10:39:22;;;;;;;10.50;9.50;;;25.20;91.80;;;;;;5059245;28;20496;-50
2021/09/08 10:41:51;;;;;;;10.27;9.47;;;24.90;91.50;;;;;;5059113;28;20855;-56
2021/09/08 10:44:39;;;;;;;11.40;10.43;;;24.90;92.30;;;;;;5058492;28;20442;-52
2021/09/08 10:47:07;;;;;;;10.73;9.77;;;24.90;91.90;;;;;;5057525;28;20728;-54
2021/09/08 10:49:37;;;;;;;9.23;8.50;;;24.80;92.50;;;;;;5058504;28;20484;-50
2021/09/08 10:52:11;;;;;;;10.10;9.30;;;24.70;93.00;;;;;;5056425;28;20972;-53
2021/09/08 10:54:57;;;;;;;9.73;9.03;;;24.70;91.50;;;;;;5052573;28;20470;-54
2021/09/08 10:57:42;;;;;;;8.60;7.90;;;24.80;91.90;;;;;;5057728;28;20631;-51
2021/09/08 11:00:19;;;;;;;10.33;9.43;;;24.90;91.30;;;;;;5058156;28;20456;-53
2021/09/08 11:02:46;;;;;;;8.50;7.90;;;25.00;91.60;;;;;;5054176;28;20474;-56
2021/09/08 11:05:14;;;;;;;8.53;7.93;;;25.20;91.50;;;;;;5059202;28;20452;-49
2021/09/08 11:07:42;;;;;;;8.13;7.57;;;25.30;90.60;;;;;;5057650;28;20456;-53
2021/09/08 11:10:11;;;;;;;10.47;9.47;;;25.20;90.20;;;;;;5061677;28;20553;-53
2021/09/08 11:12:52;;;;;;;8.73;8.13;;;25.10;90.60;;;;;;5061973;28;20759;-54
2021/09/08 11:15:40;;;;;;;11.17;10.27;;;25.10;90.60;;;;;;5062281;28;20490;-54
2021/09/08 11:18:12;;;;;;;8.43;7.93;;;25.20;91.20;;;;;;5060330;28;20436;-55
2021/09/08 11:20:40;;;;;;;9.80;9.20;;;25.30;90.40;;;;;;5062440;28;20587;-54
2021/09/08 11:23:16;;;;;;;9.63;8.90;;;25.30;86.70;;;;;;5060887;28;20813;-51
2021/09/08 11:25:45;;;;;;;8.80;8.30;;;25.30;86.10;;;;;;5057773;28;20436;-53
2021/09/08 11:28:13;;;;;;;10.00;9.30;;;25.40;87.70;;;;;;5062667;28;20481;-55
2021/09/08 11:30:43;;;;;;;8.23;7.63;;;25.50;87.60;;;;;;5061624;28;20483;-51
2021/09/08 11:33:11;;;;;;;8.83;8.13;;;25.50;87.80;;;;;;5062517;28;20778;-54
2021/09/08 11:35:50;;;;;;;8.83;8.23;;;25.70;83.40;;;;;;5062170;28;20468;-54
2021/09/08 11:38:20;;;;;;;8.43;7.83;;;25.60;85.40;;;;;;5062338;28;20517;-52
2021/09/08 11:40:50;;;;;;;8.67;8.07;;;25.60;83.30;;;;;;5061967;28;20483;-53
2021/09/08 11:43:39;;;;;;;8.00;7.50;;;25.70;81.80;;;;;;5062033;28;20494;-56
2021/09/08 11:46:16;;;;;;;8.57;7.97;;;25.70;82.30;;;;;;5058733;28;20442;-55
2021/09/08 11:48:44;;;;;;;7.87;7.37;;;25.60;83.30;;;;;;5051350;28;20699;-59
2021/09/08 11:51:14;;;;;;;8.10;7.50;;;25.60;82.60;;;;;;5061049;28;20457;-54
2021/09/08 11:53:41;;;;;;;8.73;7.80;;;25.60;82.30;;;;;;5063264;28;20435;-53
2021/09/08 11:56:12;;;;;;;9.60;8.90;;;25.50;82.20;;;;;;5063700;28;20483;-56
2021/09/08 11:58:40;;;;;;;9.87;8.80;;;25.40;82.30;;;;;;5061992;28;20433;-49
2021/09/08 12:01:10;;;;;;;10.10;9.33;;;25.50;84.30;;;;;;5061572;28;20802;-50
2021/09/08 12:03:46;;;;;;;8.87;8.30;;;25.60;81.70;;;;;;5062329;28;20595;-49
2021/09/08 12:06:25;;;;;;;8.37;7.73;;;25.60;83.40;;;;;;5061010;28;20743;-52
2021/09/08 12:08:54;;;;;;;8.77;8.20;;;25.80;83.30;;;;;;5054972;28;20433;-53
2021/09/08 12:11:45;;;;;;;8.83;8.30;;;25.70;81.70;;;;;;5053793;28;20650;-51
2021/09/08 12:14:18;;;;;;;8.47;7.87;;;25.60;80.90;;;;;;5059979;28;20754;-53
2021/09/08 12:16:52;;;;;;;8.70;7.83;;;25.50;82.80;;;;;;5060762;28;20448;-52
2021/09/08 12:19:30;;;;;;;8.47;7.87;;;25.50;81.50;;;;;;5061684;28;20439;-53
2021/09/08 12:22:15;;;;;;;8.80;8.23;;;25.50;81.20;;;;;;5060902;28;20658;-54
2021/09/08 12:24:55;;;;;;;8.87;8.17;;;25.40;81.70;;;;;;5050796;28;20774;-53
2021/09/08 12:27:31;;;;;;;8.90;8.20;;;25.40;83.90;;;;;;5052485;28;20518;-57
2021/09/08 12:30:13;;;;;;;8.93;8.20;;;25.40;83.20;;;;;;5054572;28;20866;-55
2021/09/08 12:32:54;;;;;;;8.50;8.00;;;25.60;82.40;;;;;;5056087;28;20502;-59
2021/09/08 12:35:41;;;;;;;8.50;7.90;;;25.70;81.40;;;;;;5061221;28;20432;-55
2021/09/08 12:38:38;;;;;;;8.20;7.70;;;25.70;81.50;;;;;;5061238;28;20436;-53
2021/09/08 12:41:16;;;;;;;8.30;7.80;;;25.70;80.50;;;;;;5058926;28;20523;-53
2021/09/08 12:43:47;;;;;;;9.37;8.40;;;25.50;79.40;;;;;;5056123;28;20511;-54